Katwijk aan den Rijn, Netherlands
Current Conditions -  °F | °C
As of 2:25 AM on Wednesday 22 Oct 2014 (Local Time) from EHAM Reporting Station
Rain Showers Rain Showers  
Wind Chill: 50°   Ceiling: Unl
Heat Index: 50°   Visibility: 6mi
Dew Point: 39°   Wind: 31mph
Humidity: 66%   Direction: 320°NW
Pressure: 29.85"   Gusts: 43mph
Location:  52.19°N, 4.42°E
Report Text: EHAM 220025Z 32027G37KT 9999 -SHRA FEW025CB 10/04 Q1011 TEMPO5000 SHRA
Loading
Personal Weather Stations






























Interactive Weather Map
Tropical Storm Tracking
New forecast layout! Learn more

10-Day Weather Forecast

Advertisements
Track Severe Weather on mobile